Time;durP1;ratioP1;P1;durP2;ratioP2;P2;SDS_P1;SDS_P2;PMS_P1;PMS_P2;Temp;Humidity;BMP_temperature;BMP_pressure;BME280_temperature;BME280_humidity;BME280_pressure;Samples;Min_cycle;Max_cycle;Signal;HPM_P1;HPM_P2
2021/05/14 00:00:22;;;;;;;8.35;6.90;;;;;;;12.45;66.67;99870.97;5090846;28;20043;-46
2021/05/14 00:02:48;;;;;;;11.40;7.05;;;;;;;12.43;66.74;99874.81;5090914;28;20067;-51
2021/05/14 00:05:13;;;;;;;12.30;7.05;;;;;;;12.42;66.69;99870.38;5091316;28;20063;-47
2021/05/14 00:07:39;;;;;;;9.65;7.20;;;;;;;11.48;66.63;99711.19;5091113;28;20028;-46
2021/05/14 00:10:06;;;;;;;11.25;7.40;;;;;;;12.02;66.78;99807.63;5090579;28;20036;-51
2021/05/14 00:12:32;;;;;;;9.23;7.38;;;;;;;12.32;66.81;99856.94;5091228;28;20074;-46
2021/05/14 00:14:58;;;;;;;7.80;6.97;;;;;;;12.35;66.95;99865.56;5090248;28;20063;-44
2021/05/14 00:17:23;;;;;;;11.02;7.22;;;;;;;12.32;67.08;99875.75;5090884;28;20474;-45
2021/05/14 00:19:48;;;;;;;10.93;7.47;;;;;;;12.25;67.28;99878.09;5090614;28;20040;-53
2021/05/14 00:22:14;;;;;;;12.23;8.63;;;;;;;12.33;67.12;99877.44;5090082;28;20057;-45
2021/05/14 00:24:39;;;;;;;8.63;7.50;;;;;;;12.33;67.25;99869.38;5090487;28;20523;-46
2021/05/14 00:27:05;;;;;;;13.00;7.75;;;;;;;12.31;67.09;99876.72;5090905;28;20100;-47
2021/05/14 00:29:30;;;;;;;10.25;7.85;;;;;;;12.21;66.96;99860.56;5090492;28;20039;-44
2021/05/14 00:31:56;;;;;;;12.93;8.35;;;;;;;12.28;67.18;99871.59;5090498;28;20146;-46
2021/05/14 00:34:21;;;;;;;11.15;7.80;;;;;;;12.28;67.24;99868.91;5090838;28;20039;-46
2021/05/14 00:36:48;;;;;;;12.85;8.32;;;;;;;12.26;67.29;99868.19;5090449;28;20028;-47
2021/05/14 00:39:14;;;;;;;9.63;7.70;;;;;;;12.28;67.39;99877.84;5090289;28;20052;-46
2021/05/14 00:41:39;;;;;;;13.38;8.35;;;;;;;12.24;67.52;99862.13;5090157;28;20046;-44
2021/05/14 00:44:25;;;;;;;12.40;8.68;;;;;;;12.35;68.25;99881.66;5089238;28;20040;-44
2021/05/14 00:46:50;;;;;;;13.40;8.10;;;;;;;12.29;67.41;99884.03;5090484;28;20084;-52
2021/05/14 00:49:16;;;;;;;10.48;8.13;;;;;;;12.23;67.36;99876.53;5090554;28;20533;-46
2021/05/14 00:51:42;;;;;;;11.45;8.13;;;;;;;12.27;67.35;99880.63;5090522;28;20040;-49
2021/05/14 00:54:09;;;;;;;9.43;7.70;;;;;;;12.24;67.58;99879.09;5089603;28;20107;-46
2021/05/14 00:56:34;;;;;;;11.77;8.35;;;;;;;12.17;67.37;99881.44;5090411;28;20043;-44
2021/05/14 00:59:00;;;;;;;10.07;8.60;;;;;;;12.22;67.74;99893.59;5090381;28;20024;-48
2021/05/14 01:01:25;;;;;;;11.98;8.77;;;;;;;12.14;67.27;99879.03;5088859;28;20093;-49
2021/05/14 01:03:51;;;;;;;11.13;8.90;;;;;;;12.27;67.58;99889.56;5090521;28;20447;-49
2021/05/14 01:06:16;;;;;;;12.40;8.73;;;;;;;12.26;67.50;99873.56;5090272;28;20426;-47
2021/05/14 01:08:42;;;;;;;11.32;8.15;;;;;;;12.30;66.89;99896.50;5089963;28;20032;-50
2021/05/14 01:11:07;;;;;;;10.55;8.82;;;;;;;11.91;67.14;99827.31;5090213;28;20042;-47
2021/05/14 01:13:33;;;;;;;14.75;9.43;;;;;;;12.26;67.61;99890.53;5090664;28;20473;-45
2021/05/14 01:15:59;;;;;;;11.68;8.90;;;;;;;12.25;67.47;99898.72;5090102;28;20100;-49
2021/05/14 01:18:24;;;;;;;12.00;8.75;;;;;;;12.08;67.83;99866.16;5090030;28;20161;-44
2021/05/14 01:20:50;;;;;;;14.50;8.45;;;;;;;12.17;67.83;99878.75;5090648;28;20105;-46
2021/05/14 01:23:15;;;;;;;13.50;9.25;;;;;;;12.18;67.88;99895.72;5089037;28;20040;-46
2021/05/14 01:25:41;;;;;;;13.30;9.45;;;;;;;12.14;67.74;99884.41;5089653;28;20039;-46
2021/05/14 01:28:06;;;;;;;14.30;9.52;;;;;;;11.94;67.72;99858.41;5089880;28;20028;-49
2021/05/14 01:30:32;;;;;;;14.27;9.98;;;;;;;12.14;67.65;99886.22;5089910;28;20043;-46
2021/05/14 01:32:57;;;;;;;16.50;10.82;;;;;;;12.18;67.63;99899.25;5090078;28;20056;-49
2021/05/14 01:35:23;;;;;;;14.45;10.55;;;;;;;11.94;67.42;99853.91;5092749;28;20097;-48
2021/05/14 01:37:49;;;;;;;16.90;11.05;;;;;;;12.23;67.85;99906.03;5094059;28;20032;-47
2021/05/14 01:40:14;;;;;;;16.73;11.00;;;;;;;12.16;67.93;99894.97;5093857;28;20052;-49
2021/05/14 01:42:44;;;;;;;18.67;12.05;;;;;;;12.23;68.37;99914.09;5093604;28;20385;-45
2021/05/14 01:45:11;;;;;;;17.27;12.30;;;;;;;12.22;67.90;99907.91;5093714;28;20048;-44
2021/05/14 01:47:36;;;;;;;26.70;13.15;;;;;;;12.27;67.49;99894.06;5092492;28;20038;-48
2021/05/14 01:50:03;;;;;;;19.98;13.57;;;;;;;12.28;67.68;99899.31;5093512;28;20130;-46
2021/05/14 01:52:29;;;;;;;20.67;12.00;;;;;;;12.25;67.79;99893.34;5093512;28;20516;-47
2021/05/14 01:54:55;;;;;;;19.83;12.35;;;;;;;12.24;67.79;99887.13;5093342;28;20032;-50
2021/05/14 01:57:20;;;;;;;16.73;12.25;;;;;;;12.35;67.52;99916.56;5093740;28;20035;-47
2021/05/14 01:59:46;;;;;;;18.20;12.18;;;;;;;12.31;67.85;99892.84;5092959;28;20034;-50
2021/05/14 02:02:18;;;;;;;18.13;11.90;;;;;;;12.37;67.58;99902.16;5093207;28;20062;-47
2021/05/14 02:04:44;;;;;;;17.88;11.90;;;;;;;12.44;67.49;99914.94;5093091;28;20519;-46
2021/05/14 02:07:09;;;;;;;16.73;12.32;;;;;;;12.47;67.21;99905.75;5093364;28;20114;-49
2021/05/14 02:09:35;;;;;;;15.88;12.20;;;;;;;12.11;67.38;99841.72;5092968;28;20127;-45
2021/05/14 02:12:00;;;;;;;18.92;12.93;;;;;;;12.54;67.18;99898.84;5093122;28;20381;-45
2021/05/14 02:14:26;;;;;;;18.52;13.20;;;;;;;12.19;67.22;99831.16;5093222;28;20028;-45
2021/05/14 02:16:51;;;;;;;20.50;13.55;;;;;;;12.68;66.80;99894.13;5093312;28;20066;-44
2021/05/14 02:19:17;;;;;;;21.08;14.27;;;;;;;12.74;66.45;99885.50;5092703;28;20051;-49
2021/05/14 02:21:42;;;;;;;22.08;14.20;;;;;;;12.81;66.53;99905.47;5093022;28;20052;-51
2021/05/14 02:24:09;;;;;;;24.15;13.85;;;;;;;12.93;66.21;99890.06;5092631;28;20122;-44
2021/05/14 02:26:35;;;;;;;21.48;14.13;;;;;;;12.84;66.00;99867.56;5092568;28;20097;-47
2021/05/14 02:29:03;;;;;;;18.38;14.10;;;;;;;12.78;65.59;99828.69;5092687;28;20489;-45
2021/05/14 02:31:29;;;;;;;20.30;14.52;;;;;;;13.19;64.94;99886.88;5092754;28;20119;-46
2021/05/14 02:33:54;;;;;;;18.42;14.20;;;;;;;13.19;64.99;99890.44;5092960;28;20135;-43
2021/05/14 02:36:20;;;;;;;19.65;14.18;;;;;;;13.23;64.86;99898.22;5092691;28;20024;-47
2021/05/14 02:38:45;;;;;;;17.73;13.70;;;;;;;13.21;65.07;99901.03;5092944;28;20055;-49
2021/05/14 02:41:12;;;;;;;20.00;14.50;;;;;;;13.13;64.75;99871.31;5092616;28;20039;-47
2021/05/14 02:43:39;;;;;;;17.02;13.32;;;;;;;13.26;64.65;99888.03;5092423;28;20086;-47
2021/05/14 02:46:04;;;;;;;20.73;13.50;;;;;;;13.19;64.74;99874.28;5091787;28;20057;-47
2021/05/14 02:48:30;;;;;;;21.67;13.63;;;;;;;13.37;64.24;99900.47;5092647;28;20040;-50
2021/05/14 02:50:55;;;;;;;20.52;13.45;;;;;;;13.40;64.18;99893.97;5092770;28;20031;-44
2021/05/14 02:53:21;;;;;;;17.60;14.57;;;;;;;13.47;64.04;99889.75;5092413;28;20043;-45
2021/05/14 02:55:46;;;;;;;17.67;12.80;;;;;;;13.49;64.01;99895.84;5091176;28;21048;-46
2021/05/14 02:58:12;;;;;;;19.83;13.75;;;;;;;13.65;63.22;99889.91;5092584;28;20081;-48
2021/05/14 03:00:38;;;;;;;16.35;12.15;;;;;;;13.74;62.95;99893.56;5092121;28;20075;-44
2021/05/14 03:03:03;;;;;;;19.60;11.98;;;;;;;13.69;62.76;99893.16;5091966;28;20644;-44
2021/05/14 03:05:29;;;;;;;18.10;11.60;;;;;;;13.81;62.94;99902.78;5092142;28;20085;-49
2021/05/14 03:07:54;;;;;;;15.13;11.15;;;;;;;13.88;62.30;99889.63;5092713;28;20067;-43
2021/05/14 03:10:20;;;;;;;21.13;10.15;;;;;;;13.84;62.27;99891.72;5091892;28;20357;-46
2021/05/14 03:12:45;;;;;;;17.50;10.30;;;;;;;13.66;61.65;99842.31;5091614;28;20471;-54
2021/05/14 03:15:11;;;;;;;15.32;10.10;;;;;;;14.16;61.30;99906.69;5092180;28;20032;-45
2021/05/14 03:17:37;;;;;;;12.88;9.05;;;;;;;14.13;61.01;99885.44;5092318;28;20466;-57
2021/05/14 03:20:08;;;;;;;16.23;10.30;;;;;;;14.04;60.37;99848.63;5091788;28;20551;-47
2021/05/14 03:22:35;;;;;;;16.00;10.35;;;;;;;14.64;59.85;99922.84;5090692;28;20065;-50
2021/05/14 03:25:00;;;;;;;15.43;9.60;;;;;;;14.96;59.17;99918.06;5092052;28;20089;-48
2021/05/14 03:27:26;;;;;;;13.98;9.13;;;;;;;15.28;58.31;99912.19;5092211;28;20036;-51
2021/05/14 03:29:51;;;;;;;12.82;9.23;;;;;;;15.69;56.61;99892.81;5091590;28;20032;-49
2021/05/14 03:32:18;;;;;;;11.30;8.60;;;;;;;16.34;55.44;99917.81;5090355;28;20039;-48
2021/05/14 03:34:43;;;;;;;12.52;9.15;;;;;;;16.56;54.33;99892.09;5091742;28;20028;-51
2021/05/14 03:37:09;;;;;;;12.65;8.93;;;;;;;17.00;53.44;99903.78;5091537;28;20032;-48
2021/05/14 03:39:44;;;;;;;15.65;8.98;;;;;;;17.72;51.43;99895.09;5091254;28;20052;-53
2021/05/14 03:42:15;;;;;;;10.68;8.35;;;;;;;18.18;49.34;99856.69;5091643;28;20044;-46
2021/05/14 03:44:41;;;;;;;13.32;8.90;;;;;;;19.23;47.14;99889.16;5091459;28;20035;-53
2021/05/14 03:47:07;;;;;;;15.70;9.05;;;;;;;19.78;45.33;99899.97;5091209;28;20035;-48
2021/05/14 03:49:39;;;;;;;12.60;8.63;;;;;;;20.41;43.59;99888.84;5092139;28;20127;-50
2021/05/14 03:52:10;;;;;;;13.38;8.30;;;;;;;21.54;41.40;99893.19;5091179;28;20110;-48
2021/05/14 03:54:37;;;;;;;9.77;8.07;;;;;;;22.15;39.53;99856.38;5091196;28;20031;-49
2021/05/14 03:57:04;;;;;;;13.80;8.07;;;;;;;23.38;37.61;99892.28;5090892;28;20032;-47
2021/05/14 03:59:30;;;;;;;11.57;7.55;;;;;;;23.87;35.93;99871.09;5091554;28;20416;-50
2021/05/14 04:01:56;;;;;;;12.00;8.07;;;;;;;24.71;34.97;99888.84;5091343;28;20050;-47
2021/05/14 04:04:23;;;;;;;11.63;7.70;;;;;;;25.42;33.05;99895.28;5091106;28;20032;-51
2021/05/14 04:06:49;;;;;;;14.27;8.27;;;;;;;25.89;32.17;99856.59;5090973;28;20039;-48
2021/05/14 04:09:18;;;;;;;12.70;8.07;;;;;;;26.68;30.50;99849.69;5091125;28;20039;-49
2021/05/14 04:14:30;;;;;;;10.40;7.75;;;;;;;28.22;28.17;99876.84;5090671;28;20516;-46
2021/05/14 04:17:04;;;;;;;11.32;7.90;;;;;;;29.08;26.58;99888.31;5091122;28;20057;-48
2021/05/14 04:19:29;;;;;;;11.93;7.30;;;;;;;29.63;26.03;99884.09;5091040;28;20035;-48
2021/05/14 04:21:56;;;;;;;8.75;6.53;;;;;;;29.88;25.12;99885.63;5090972;28;20032;-49
2021/05/14 04:24:23;;;;;;;15.93;6.88;;;;;;;29.91;24.77;99890.66;5091026;28;20873;-50
2021/05/14 04:26:51;;;;;;;12.18;6.93;;;;;;;30.46;24.35;99890.94;5090703;28;20137;-51
2021/05/14 04:29:17;;;;;;;13.98;7.15;;;;;;;31.12;23.33;99883.75;5090743;28;20035;-50
2021/05/14 04:31:44;;;;;;;12.43;6.60;;;;;;;31.33;22.66;99875.72;5090848;28;20095;-53
2021/05/14 04:34:11;;;;;;;7.88;6.68;;;;;;;31.59;22.46;99878.72;5090701;28;20387;-54
2021/05/14 04:36:37;;;;;;;10.50;6.90;;;;;;;32.09;22.14;99884.97;5090287;28;20089;-49
2021/05/14 04:39:04;;;;;;;12.25;6.57;;;;;;;32.31;21.72;99876.53;5090958;28;20139;-52
2021/05/14 04:41:29;;;;;;;12.13;6.55;;;;;;;32.29;21.71;99875.09;5091357;28;20536;-53
2021/05/14 04:43:55;;;;;;;11.93;6.72;;;;;;;31.91;21.78;99881.53;5090852;28;20062;-53
2021/05/14 04:46:20;;;;;;;12.75;7.50;;;;;;;31.47;22.29;99876.97;5090564;28;20085;-52
2021/05/14 04:48:46;;;;;;;13.13;7.15;;;;;;;31.19;22.35;99887.19;5090733;28;20067;-50
2021/05/14 04:51:11;;;;;;;19.55;8.27;;;;;;;30.95;22.54;99883.84;5091016;28;20379;-48
2021/05/14 04:53:37;;;;;;;11.63;7.50;;;;;;;31.35;21.89;99868.84;5090730;28;20036;-49
2021/05/14 04:56:04;;;;;;;15.52;7.65;;;;;;;32.08;20.95;99848.13;5090799;28;20102;-48
2021/05/14 04:58:30;;;;;;;15.15;7.38;;;;;;;33.35;19.92;99875.03;5090696;28;20067;-48
2021/05/14 05:00:57;;;;;;;15.13;7.97;;;;;;;34.43;18.99;99864.16;5090499;28;20036;-50
2021/05/14 05:03:22;;;;;;;14.52;7.65;;;;;;;34.80;18.66;99862.09;5090383;28;20058;-49
2021/05/14 05:05:48;;;;;;;14.48;7.80;;;;;;;35.27;17.81;99865.47;5090266;28;20032;-51
2021/05/14 05:08:15;;;;;;;11.48;7.53;;;;;;;34.88;18.10;99853.16;5090281;28;20040;-51
2021/05/14 05:10:40;;;;;;;17.75;7.90;;;;;;;34.97;17.94;99862.56;5094242;28;20039;-51
2021/05/14 05:13:06;;;;;;;13.85;7.63;;;;;;;35.34;17.43;99868.78;5094525;28;20093;-53
2021/05/14 05:15:31;;;;;;;17.23;8.20;;;;;;;36.01;16.47;99871.00;5094829;28;20439;-52
2021/05/14 05:17:57;;;;;;;11.40;7.60;;;;;;;36.90;16.10;99865.31;5094295;28;20434;-50
2021/05/14 05:20:22;;;;;;;13.77;7.38;;;;;;;37.75;15.17;99864.59;5094373;28;20067;-52
2021/05/14 05:22:48;;;;;;;9.90;6.95;;;;;;;38.61;14.33;99865.28;5094429;28;20405;-48
2021/05/14 05:25:14;;;;;;;10.88;7.10;;;;;;;39.43;13.66;99873.84;5094192;28;20050;-49
2021/05/14 05:27:41;;;;;;;10.52;7.93;;;;;;;39.22;13.38;99873.44;5093763;28;20405;-50
2021/05/14 05:30:07;;;;;;;12.02;7.85;;;;;;;39.45;13.66;99859.50;5094141;28;20032;-50
2021/05/14 05:32:33;;;;;;;11.55;7.13;;;;;;;39.75;13.48;99857.88;5094438;28;20040;-48
2021/05/14 05:34:58;;;;;;;8.70;6.30;;;;;;;40.70;12.42;99877.47;5094026;28;20039;-48
2021/05/14 05:37:25;;;;;;;6.47;5.70;;;;;;;40.84;12.01;99832.44;5094098;28;20032;-51
2021/05/14 05:39:50;;;;;;;8.60;5.78;;;;;;;41.11;11.31;99869.78;5093676;28;20124;-50
2021/05/14 05:42:16;;;;;;;8.05;6.20;;;;;;;40.97;11.46;99875.56;5093798;28;20051;-52
2021/05/14 05:44:41;;;;;;;15.25;6.80;;;;;;;40.60;11.48;99824.47;5093695;28;20040;-52
2021/05/14 05:47:07;;;;;;;9.57;6.40;;;;;;;41.47;11.24;99860.22;5094135;28;20043;-54
2021/05/14 05:49:33;;;;;;;9.32;6.32;;;;;;;42.03;10.62;99875.53;5093690;28;20036;-51
2021/05/14 05:51:58;;;;;;;6.97;5.68;;;;;;;42.75;10.56;99872.06;5092364;28;20385;-50
2021/05/14 05:54:24;;;;;;;10.40;5.85;;;;;;;43.25;9.71;99850.69;5093551;28;20040;-46
2021/05/14 05:56:50;;;;;;;10.52;5.53;;;;;;;43.16;8.96;99833.84;5093768;28;20504;-53
2021/05/14 05:59:18;;;;;;;6.80;5.63;;;;;;;42.97;9.45;99867.31;5093546;28;20106;-48
2021/05/14 06:01:44;;;;;;;9.07;5.93;;;;;;;43.11;9.35;99858.56;5093651;28;20043;-50
2021/05/14 06:04:09;;;;;;;7.85;5.32;;;;;;;42.93;9.25;99841.84;5093549;28;20507;-51
2021/05/14 06:06:35;;;;;;;9.80;5.47;;;;;;;42.98;9.57;99861.34;5093873;28;20028;-53
2021/05/14 06:09:01;;;;;;;7.90;5.70;;;;;;;43.02;9.47;99862.28;5093320;28;20421;-54
2021/05/14 06:11:26;;;;;;;8.70;5.28;;;;;;;44.00;8.52;99856.59;5093485;28;20451;-48
2021/05/14 06:13:52;;;;;;;10.00;5.57;;;;;;;44.36;8.23;99823.94;5093511;28;20043;-46
2021/05/14 06:16:18;;;;;;;5.90;5.40;;;;;;;45.02;8.08;99833.28;5091936;28;20062;-48
2021/05/14 06:18:48;;;;;;;8.13;5.32;;;;;;;45.41;7.73;99860.22;5093405;28;20461;-47
2021/05/14 06:21:14;;;;;;;8.90;5.40;;;;;;;44.01;8.00;99844.13;5093375;28;20157;-49
2021/05/14 06:23:39;;;;;;;9.05;4.75;;;;;;;43.66;8.14;99822.78;5093018;28;20488;-47
2021/05/14 06:26:05;;;;;;;8.18;4.43;;;;;;;44.31;8.12;99850.41;5093020;28;20035;-47
2021/05/14 06:28:30;;;;;;;6.57;4.47;;;;;;;44.96;8.08;99843.19;5074648;28;20032;-46
2021/05/14 06:30:56;;;;;;;5.93;4.63;;;;;;;45.70;7.85;99829.91;5092208;28;20040;-47
2021/05/14 06:33:21;;;;;;;7.28;4.40;;;;;;;46.64;6.95;99849.28;5092228;28;20459;-50
2021/05/14 06:35:49;;;;;;;6.05;4.50;;;;;;;47.00;6.61;99841.56;5092719;28;20053;-47
2021/05/14 06:38:15;;;;;;;6.57;3.88;;;;;;;46.98;6.71;99849.63;5092574;28;20108;-49
2021/05/14 06:40:40;;;;;;;7.03;4.03;;;;;;;47.49;6.33;99835.69;5092882;28;20036;-50
2021/05/14 06:43:06;;;;;;;8.88;4.57;;;;;;;46.46;6.75;99829.03;5092582;28;20068;-49
2021/05/14 06:45:31;;;;;;;6.60;4.22;;;;;;;45.57;7.59;99846.94;5092890;28;20089;-46
2021/05/14 06:48:05;;;;;;;11.57;5.15;;;;;;;44.25;7.48;99842.53;5092394;28;20044;-48
2021/05/14 06:50:31;;;;;;;9.88;4.30;;;;;;;42.65;8.80;99847.94;5092445;28;20048;-49
2021/05/14 06:52:57;;;;;;;10.45;4.15;;;;;;;41.33;9.68;99789.34;5092077;28;20408;-48
2021/05/14 06:55:22;;;;;;;8.90;4.30;;;;;;;41.44;10.18;99823.53;5091075;28;20028;-51
2021/05/14 06:57:48;;;;;;;4.45;3.83;;;;;;;40.99;10.27;99762.94;5092578;28;20035;-49
2021/05/14 07:00:14;;;;;;;8.05;4.15;;;;;;;40.78;10.72;99818.94;5092217;28;20032;-48
2021/05/14 07:02:40;;;;;;;6.07;4.10;;;;;;;41.69;10.37;99821.88;5092331;28;20526;-50
2021/05/14 07:05:06;;;;;;;6.70;3.85;;;;;;;41.72;9.75;99812.75;5092034;28;20067;-53
2021/05/14 07:07:34;;;;;;;7.93;3.78;;;;;;;42.36;9.46;99800.94;5092241;28;20119;-50
2021/05/14 07:09:59;;;;;;;6.93;3.75;;;;;;;43.02;9.32;99828.50;5093783;28;20039;-47
2021/05/14 07:12:25;;;;;;;6.80;4.07;;;;;;;42.58;9.23;99766.06;5099577;28;20028;-49
2021/05/14 07:14:50;;;;;;;5.70;4.07;;;;;;;42.59;9.53;99832.44;5101887;28;20050;-48
2021/05/14 07:17:17;;;;;;;7.20;4.20;;;;;;;41.39;10.09;99804.88;5100873;28;20028;-48
2021/05/14 07:19:42;;;;;;;6.07;3.90;;;;;;;40.85;10.44;99810.84;5102639;28;20107;-56
2021/05/14 07:22:08;;;;;;;5.05;3.97;;;;;;;41.23;10.19;99807.38;5098409;28;20088;-52
2021/05/14 07:24:33;;;;;;;6.85;3.75;;;;;;;42.22;9.81;99796.38;5101412;28;20422;-48
2021/05/14 07:26:59;;;;;;;7.07;4.05;;;;;;;43.45;8.98;99806.75;5099437;28;20031;-51
2021/05/14 07:29:26;;;;;;;4.30;3.80;;;;;;;44.07;8.73;99808.88;5100338;28;20046;-53
2021/05/14 07:31:51;;;;;;;4.70;3.72;;;;;;;44.57;8.46;99803.25;5100580;28;20027;-49
2021/05/14 07:34:17;;;;;;;4.50;3.97;;;;;;;45.29;7.83;99802.53;5099267;28;20031;-52
2021/05/14 07:36:42;;;;;;;7.95;4.05;;;;;;;46.12;7.10;99806.81;5101036;28;20400;-49
2021/05/14 07:39:08;;;;;;;4.15;3.85;;;;;;;45.77;7.12;99756.59;5101019;28;20082;-54
2021/05/14 07:41:33;;;;;;;7.47;3.80;;;;;;;45.15;7.49;99788.03;5099323;28;20552;-51
2021/05/14 07:43:59;;;;;;;4.80;3.85;;;;;;;43.62;8.97;99804.06;5095953;28;20039;-51
2021/05/14 07:46:24;;;;;;;7.53;4.03;;;;;;;41.89;9.68;99771.72;5091449;28;20201;-48
2021/05/14 07:48:50;;;;;;;5.80;4.53;;;;;;;41.37;10.17;99798.78;5090124;28;20032;-52
2021/05/14 07:51:15;;;;;;;4.20;3.80;;;;;;;40.85;10.88;99785.56;5091127;28;20039;-53
2021/05/14 07:53:41;;;;;;;5.32;3.70;;;;;;;40.83;10.52;99757.00;5091424;28;20036;-52
2021/05/14 07:56:08;;;;;;;5.95;3.88;;;;;;;41.23;10.47;99765.25;5090223;28;20757;-52
2021/05/14 07:58:33;;;;;;;7.50;3.30;;;;;;;41.28;10.41;99781.09;5100873;28;20108;-54
2021/05/14 08:00:59;;;;;;;8.27;3.30;;;;;;;40.89;10.57;99786.56;5097606;28;20059;-53
2021/05/14 08:03:24;;;;;;;3.65;3.42;;;;;;;41.01;10.89;99788.69;5091846;28;20032;-53
2021/05/14 08:05:50;;;;;;;5.40;3.10;;;;;;;40.26;10.84;99758.69;5095868;28;20036;-52
2021/05/14 08:08:18;;;;;;;7.10;3.78;;;;;;;40.42;10.82;99785.16;5095179;28;20039;-48
2021/05/14 08:10:44;;;;;;;5.90;3.70;;;;;;;39.78;11.28;99737.91;5101427;28;20480;-48
2021/05/14 08:13:09;;;;;;;5.03;3.53;;;;;;;38.72;11.83;99749.19;5100605;28;20032;-51
2021/05/14 08:15:35;;;;;;;4.63;3.25;;;;;;;36.99;13.29;99729.56;5103947;28;20386;-51
2021/05/14 08:18:00;;;;;;;4.03;3.00;;;;;;;35.61;14.85;99781.16;5099560;28;20031;-53
2021/05/14 08:20:27;;;;;;;6.03;2.67;;;;;;;34.32;16.30;99777.22;5088855;28;20028;-54
2021/05/14 08:22:52;;;;;;;6.60;2.88;;;;;;;33.06;17.52;99775.69;5089980;28;20440;-56
2021/05/14 08:25:18;;;;;;;5.03;2.88;;;;;;;31.74;18.87;99762.63;5089674;28;20111;-54
2021/05/14 08:27:44;;;;;;;5.57;2.85;;;;;;;30.54;20.29;99759.84;5089529;28;20105;-58
2021/05/14 08:30:12;;;;;;;6.95;3.25;;;;;;;29.84;21.26;99742.91;5095874;28;20039;-55
2021/05/14 08:32:38;;;;;;;4.07;3.20;;;;;;;29.64;21.82;99758.88;5090614;28;20580;-54
2021/05/14 08:35:05;;;;;;;4.25;3.75;;;;;;;29.29;21.98;99745.31;5098699;28;20272;-60
2021/05/14 08:37:31;;;;;;;3.50;3.20;;;;;;;28.86;22.95;99737.44;5109124;28;20062;-57
2021/05/14 08:39:57;;;;;;;4.22;3.42;;;;;;;28.50;23.49;99756.84;5093671;28;20486;-54
2021/05/14 08:42:22;;;;;;;4.65;3.38;;;;;;;28.40;23.99;99739.28;5106734;28;20042;-56
2021/05/14 08:44:48;;;;;;;10.13;3.60;;;;;;;28.34;23.93;99730.94;5096135;28;20194;-59
2021/05/14 08:47:15;;;;;;;4.43;3.47;;;;;;;27.99;23.94;99687.78;5099651;28;20032;-61
2021/05/14 08:49:44;;;;;;;5.60;3.50;;;;;;;28.27;24.32;99741.22;5090733;28;20027;-53
2021/05/14 08:52:11;;;;;;;8.88;3.85;;;;;;;28.16;24.98;99723.66;5106975;28;20480;-51
2021/05/14 08:54:42;;;;;;;6.38;4.10;;;;;;;27.92;25.29;99731.94;5092993;28;20553;-49
2021/05/14 08:57:07;;;;;;;4.65;3.25;;;;;;;27.60;25.91;99725.97;5092897;28;20058;-55
2021/05/14 08:59:33;;;;;;;5.00;3.42;;;;;;;27.44;25.68;99711.00;5090774;28;20123;-52
2021/05/14 09:01:58;;;;;;;5.05;3.20;;;;;;;27.42;25.86;99716.75;5099689;28;20035;-49
2021/05/14 09:04:30;;;;;;;5.53;3.40;;;;;;;27.41;25.66;99720.59;5096120;28;20512;-51
2021/05/14 09:06:56;;;;;;;11.05;3.88;;;;;;;27.22;25.86;99708.81;5093794;28;20071;-53
2021/05/14 09:09:22;;;;;;;7.88;3.50;;;;;;;27.40;24.90;99705.16;5094089;28;20024;-52
2021/05/14 09:11:51;;;;;;;6.00;3.78;;;;;;;27.56;25.31;99708.28;5099915;28;20522;-52
2021/05/14 09:14:45;;;;;;;7.18;3.40;;;;;;;27.95;24.81;99711.38;5095407;28;20051;-50
2021/05/14 09:17:12;;;;;;;6.03;3.67;;;;;;;27.76;25.18;99711.50;5100164;28;20119;-58
2021/05/14 09:19:41;;;;;;;51.60;24.88;;;;;;;27.70;25.63;99708.88;5090267;28;20048;-51
2021/05/14 09:22:17;;;;;;;8.25;4.45;;;;;;;27.70;25.37;99708.88;5094639;28;20028;-49
2021/05/14 09:24:47;;;;;;;6.05;4.10;;;;;;;27.63;25.44;99714.53;5097656;28;20146;-61
2021/05/14 09:27:38;;;;;;;7.43;4.45;;;;;;;27.55;25.47;99690.13;5090231;28;20031;-55
2021/05/14 09:30:08;;;;;;;5.95;3.95;;;;;;;27.63;25.89;99703.53;5088972;28;20067;-53
2021/05/14 09:32:35;;;;;;;5.30;3.80;;;;;;;27.67;24.87;99695.59;5089818;28;20032;-56
2021/05/14 09:35:03;;;;;;;4.70;3.28;;;;;;;27.64;24.10;99689.50;5093152;28;20090;-51
2021/05/14 09:37:30;;;;;;;4.32;3.35;;;;;;;27.73;23.64;99697.38;5094103;28;20023;-55
2021/05/14 09:40:31;;;;;;;7.03;3.72;;;;;;;27.93;23.99;99686.84;5092500;28;20067;-50
2021/05/14 09:43:00;;;;;;;6.88;4.10;;;;;;;27.71;24.87;99681.13;5082502;28;20044;-54
2021/05/14 09:45:27;;;;;;;6.13;3.75;;;;;;;28.03;24.19;99691.72;5085010;28;20167;-65
2021/05/14 09:48:22;;;;;;;8.18;4.63;;;;;;;27.90;24.86;99687.31;5090500;28;20070;-61
2021/05/14 09:50:49;;;;;;;8.35;4.60;;;;;;;27.62;25.77;99697.16;5105054;28;20508;-54
2021/05/14 09:53:17;;;;;;;7.40;4.85;;;;;;;27.19;26.19;99701.06;5095119;28;20039;-54
2021/05/14 09:55:50;;;;;;;11.57;4.32;;;;;;;26.93;26.42;99693.03;5101851;28;20073;-53
2021/05/14 09:58:25;;;;;;;8.93;4.63;;;;;;;26.69;27.33;99708.56;5094889;28;20028;-52
2021/05/14 10:00:50;;;;;;;6.87;4.47;;;;;;;26.34;27.73;99682.66;5108729;28;20035;-51
2021/05/14 10:03:17;;;;;;;6.80;3.88;;;;;;;26.50;27.60;99703.13;5095561;28;20025;-52
2021/05/14 10:05:45;;;;;;;5.88;4.65;;;;;;;26.80;27.47;99705.03;5097631;28;20119;-51
2021/05/14 10:08:14;;;;;;;7.78;4.30;;;;;;;27.03;26.42;99695.22;5094184;28;20501;-49
2021/05/14 10:10:40;;;;;;;4.90;4.00;;;;;;;27.28;25.78;99691.41;5097425;28;20047;-50
2021/05/14 10:13:08;;;;;;;8.00;4.55;;;;;;;27.53;25.46;99698.63;5106771;28;20138;-52
2021/05/14 10:15:34;;;;;;;4.50;4.07;;;;;;;27.69;24.67;99712.69;5097665;28;20035;-53
2021/05/14 10:18:05;;;;;;;6.32;3.75;;;;;;;27.63;24.03;99698.84;5101995;28;20089;-51
2021/05/14 10:20:34;;;;;;;5.00;3.55;;;;;;;27.51;24.15;99698.03;5109421;28;20027;-51
2021/05/14 10:23:02;;;;;;;8.25;4.03;;;;;;;27.23;25.03;99708.59;5096279;28;20036;-55
2021/05/14 10:25:50;;;;;;;7.63;4.18;;;;;;;27.22;25.45;99708.81;5103787;28;20047;-51
2021/05/14 10:28:24;;;;;;;5.60;3.95;;;;;;;27.11;26.10;99695.94;5092624;28;20130;-51
2021/05/14 10:31:06;;;;;;;7.03;4.38;;;;;;;27.44;25.97;99700.84;5108670;28;20028;-51
2021/05/14 10:33:52;;;;;;;6.15;4.20;;;;;;;27.78;25.32;99694.78;5095840;28;20032;-48
2021/05/14 10:36:20;;;;;;;5.60;4.25;;;;;;;27.75;25.81;99695.25;5093763;28;20146;-51
2021/05/14 10:39:26;;;;;;;4.35;3.95;;;;;;;27.68;25.69;99686.28;5098377;28;20051;-62
2021/05/14 10:42:00;;;;;;;5.65;4.32;;;;;;;27.61;25.90;99683.66;5101892;28;20066;-56
2021/05/14 10:44:48;;;;;;;6.38;4.35;;;;;;;27.66;25.97;99675.53;5093375;28;20048;-56
2021/05/14 10:47:26;;;;;;;6.13;5.07;;;;;;;27.49;26.41;99669.88;5091693;28;20027;-52
2021/05/14 10:49:59;;;;;;;5.90;4.70;;;;;;;27.06;27.05;99667.25;5091737;28;20039;-55
2021/05/14 10:52:27;;;;;;;6.57;3.75;;;;;;;26.90;26.16;99652.31;5090386;28;20101;-55
2021/05/14 10:54:53;;;;;;;9.13;4.00;;;;;;;26.51;25.15;99597.72;5091554;28;20056;-56
2021/05/14 10:57:41;;;;;;;7.45;3.70;;;;;;;26.94;24.50;99675.47;5098198;28;20089;-60
2021/05/14 11:00:29;;;;;;;6.15;3.38;;;;;;;26.77;23.15;99661.56;5098113;28;20087;-54
2021/05/14 11:03:10;;;;;;;4.15;2.97;;;;;;;26.41;23.20;99662.53;5089694;28;20390;-56
2021/05/14 11:05:41;;;;;;;6.57;3.00;;;;;;;26.15;23.48;99659.03;5102034;28;20039;-54
2021/05/14 11:08:08;;;;;;;7.60;3.33;;;;;;;26.09;23.70;99658.88;5104255;28;20058;-55
2021/05/14 11:10:35;;;;;;;4.88;3.40;;;;;;;26.08;24.29;99664.63;5093598;28;20052;-58
2021/05/14 11:13:39;;;;;;;6.30;3.55;;;;;;;26.20;24.76;99665.53;5103784;28;20040;-52
2021/05/14 11:16:33;;;;;;;8.13;3.60;;;;;;;26.20;24.48;99657.28;5082455;28;20557;-51
2021/05/14 11:19:14;;;;;;;3.88;3.40;;;;;;;26.23;25.22;99669.72;5088860;28;20467;-49
2021/05/14 11:21:59;;;;;;;8.60;3.92;;;;;;;26.21;25.35;99672.69;5096671;28;20413;-55
2021/05/14 11:24:37;;;;;;;10.00;4.40;;;;;;;26.19;26.27;99657.53;5089515;28;20178;-50
2021/05/14 11:27:13;;;;;;;11.18;4.50;;;;;;;26.01;26.96;99645.50;5089445;28;20036;-50
2021/05/14 11:29:53;;;;;;;7.60;4.22;;;;;;;25.99;27.29;99655.84;5100290;28;20051;-55
2021/05/14 11:32:19;;;;;;;9.35;4.53;;;;;;;26.07;27.34;99649.22;5089231;28;20500;-50
2021/05/14 11:35:00;;;;;;;8.38;4.88;;;;;;;26.14;27.81;99639.00;5098709;28;20236;-55